Time;durP1;ratioP1;P1;durP2;ratioP2;P2;SDS_P1;SDS_P2;PMS_P1;PMS_P2;Temp;Humidity;BMP_temperature;BMP_pressure;BME280_temperature;BME280_humidity;BME280_pressure;Samples;Min_cycle;Max_cycle;Signal;HPM_P1;HPM_P2
2024/04/11 00:01:09;;;;;;;1.43;0.70;;;7.30;99.90;;;;;;5492877;26;21096;-79
2024/04/11 00:03:35;;;;;;;0.70;0.70;;;7.30;99.90;;;;;;5492898;26;20581;-79
2024/04/11 00:06:03;;;;;;;3.20;0.77;;;7.30;99.90;;;;;;5492804;26;20444;-79
2024/04/11 00:08:29;;;;;;;0.77;0.77;;;7.20;99.90;;;;;;5492816;26;20789;-79
2024/04/11 00:10:58;;;;;;;2.87;0.80;;;7.20;99.90;;;;;;5492628;26;20452;-79
2024/04/11 00:13:24;;;;;;;0.80;0.70;;;7.10;99.90;;;;;;5492697;26;20999;-79
2024/04/11 00:15:56;;;;;;;1.23;0.70;;;7.20;99.90;;;;;;5493043;26;20500;-79
2024/04/11 00:18:25;;;;;;;0.97;0.87;;;7.10;99.90;;;;;;5492854;26;20206;-79
2024/04/11 00:20:55;;;;;;;1.53;0.90;;;7.10;99.90;;;;;;5492786;26;20492;-79
2024/04/11 00:23:21;;;;;;;1.00;0.90;;;7.10;99.90;;;;;;5492507;26;20560;-79
2024/04/11 00:25:55;;;;;;;0.90;0.73;;;7.10;99.90;;;;;;5492420;26;20800;-79
2024/04/11 00:28:22;;;;;;;1.33;1.00;;;7.10;99.90;;;;;;5492850;26;20796;-79
2024/04/11 00:30:51;;;;;;;3.07;1.40;;;7.10;99.90;;;;;;5492986;26;20562;-79
2024/04/11 00:33:19;;;;;;;1.63;1.17;;;7.10;99.90;;;;;;5492513;26;20598;-79
2024/04/11 00:35:49;;;;;;;0.77;0.77;;;7.10;99.90;;;;;;5493089;26;20439;-79
2024/04/11 00:38:16;;;;;;;1.13;0.67;;;7.10;99.90;;;;;;5492273;26;20515;-79
2024/04/11 00:40:45;;;;;;;1.37;0.70;;;7.10;99.90;;;;;;5492502;26;20532;-79
2024/04/11 00:43:10;;;;;;;0.60;0.60;;;7.20;99.90;;;;;;5492442;26;20527;-79
2024/04/11 00:45:47;;;;;;;0.80;0.70;;;7.20;99.90;;;;;;5492043;26;20452;-79
2024/04/11 00:48:13;;;;;;;1.40;0.70;;;7.30;99.90;;;;;;5492784;26;20263;-79
2024/04/11 00:50:44;;;;;;;0.83;0.60;;;7.30;99.90;;;;;;5492763;26;20553;-79
2024/04/11 00:53:11;;;;;;;2.00;0.67;;;7.40;99.90;;;;;;5492199;26;20798;-79
2024/04/11 00:55:41;;;;;;;0.97;0.97;;;7.40;99.90;;;;;;5492420;26;20494;-79
2024/04/11 00:58:08;;;;;;;2.10;0.70;;;7.40;99.90;;;;;;5492250;26;20452;-79
2024/04/11 01:00:37;;;;;;;2.40;1.00;;;7.40;99.90;;;;;;5492333;26;20463;-79
2024/04/11 01:03:03;;;;;;;0.80;0.70;;;7.30;99.90;;;;;;5492112;26;20590;-79
2024/04/11 01:05:34;;;;;;;2.20;1.03;;;7.20;99.90;;;;;;5492144;26;20557;-79
2024/04/11 01:08:07;;;;;;;0.70;0.60;;;7.20;99.90;;;;;;5496135;26;20452;-80
2024/04/11 01:10:37;;;;;;;2.00;0.70;;;7.20;99.90;;;;;;5494214;26;20459;-79
2024/04/11 01:13:05;;;;;;;1.20;0.80;;;7.10;99.90;;;;;;5492593;26;20471;-80
2024/04/11 01:15:34;;;;;;;4.27;1.17;;;7.00;99.90;;;;;;5492941;26;20527;-80
2024/04/11 01:18:00;;;;;;;0.80;0.80;;;6.90;99.90;;;;;;5491542;26;20557;-80
2024/04/11 01:20:29;;;;;;;1.43;0.90;;;6.80;99.90;;;;;;5492367;26;20800;-79
2024/04/11 01:22:57;;;;;;;2.70;1.37;;;6.80;99.90;;;;;;5492112;26;20226;-79
2024/04/11 01:25:29;;;;;;;3.13;1.30;;;6.70;99.90;;;;;;5491774;26;20515;-79
2024/04/11 01:27:55;;;;;;;0.60;0.60;;;6.60;99.90;;;;;;5491863;26;20471;-79
2024/04/11 01:30:24;;;;;;;3.17;0.90;;;6.50;99.90;;;;;;5491927;26;20561;-79
2024/04/11 01:32:49;;;;;;;0.97;0.97;;;6.50;99.90;;;;;;5491569;26;21019;-79
2024/04/11 01:35:18;;;;;;;1.37;0.80;;;6.40;99.90;;;;;;5491840;26;20451;-79
2024/04/11 01:37:44;;;;;;;3.80;0.70;;;6.40;99.90;;;;;;5491711;26;20249;-79
2024/04/11 01:40:18;;;;;;;0.80;0.77;;;6.40;99.90;;;;;;5492025;26;20448;-79
2024/04/11 01:42:44;;;;;;;1.00;0.90;;;6.40;99.90;;;;;;5490940;26;20339;-79
2024/04/11 01:45:12;;;;;;;0.93;0.90;;;6.40;99.90;;;;;;5492157;26;20971;-79
2024/04/11 01:47:39;;;;;;;2.67;1.00;;;6.30;99.90;;;;;;5491725;26;20257;-79
2024/04/11 01:50:09;;;;;;;1.20;0.97;;;6.30;99.90;;;;;;5491406;26;20494;-79
2024/04/11 01:52:35;;;;;;;1.67;0.77;;;6.30;99.90;;;;;;5491300;26;20886;-79
2024/04/11 01:55:03;;;;;;;1.00;0.90;;;6.20;99.90;;;;;;5491364;26;20455;-79
2024/04/11 01:57:31;;;;;;;1.13;0.87;;;6.20;99.90;;;;;;5491174;26;20305;-79
2024/04/11 02:00:00;;;;;;;2.03;0.77;;;6.10;99.90;;;;;;5491351;26;20492;-79
2024/04/11 02:02:26;;;;;;;1.17;0.87;;;6.10;99.90;;;;;;5490987;26;20534;-79
2024/04/11 02:04:55;;;;;;;1.27;0.73;;;6.10;99.90;;;;;;5490564;26;20447;-79
2024/04/11 02:07:21;;;;;;;1.80;0.67;;;6.10;99.90;;;;;;5491387;26;20507;-79
2024/04/11 02:09:49;;;;;;;4.30;1.20;;;6.10;99.90;;;;;;5491234;26;20561;-79
2024/04/11 02:12:17;;;;;;;1.80;1.10;;;6.10;99.90;;;;;;5490998;26;20278;-79
2024/04/11 02:14:48;;;;;;;0.80;0.80;;;6.10;99.90;;;;;;5491528;26;20500;-79
2024/04/11 02:17:14;;;;;;;4.40;1.30;;;6.00;99.90;;;;;;5491380;26;20400;-79
2024/04/11 02:19:45;;;;;;;2.67;0.80;;;6.00;99.90;;;;;;5491188;26;20519;-79
2024/04/11 02:22:11;;;;;;;3.70;1.33;;;6.00;99.90;;;;;;5490993;26;20267;-79
2024/04/11 02:24:39;;;;;;;4.20;0.90;;;6.00;99.90;;;;;;5490882;26;20565;-79
2024/04/11 02:27:06;;;;;;;1.13;0.70;;;6.00;99.90;;;;;;5490519;26;20514;-79
2024/04/11 02:29:35;;;;;;;2.23;0.80;;;6.10;99.90;;;;;;5491271;26;21016;-79
2024/04/11 02:32:04;;;;;;;2.97;0.70;;;6.00;99.90;;;;;;5494305;26;20608;-79
2024/04/11 02:34:32;;;;;;;1.30;0.90;;;6.10;99.90;;;;;;5494028;26;20853;-79
2024/04/11 02:36:58;;;;;;;2.20;0.70;;;6.10;99.90;;;;;;5493895;26;20592;-79
2024/04/11 02:39:26;;;;;;;1.30;1.10;;;6.00;99.90;;;;;;5494512;26;20443;-79
2024/04/11 02:41:52;;;;;;;1.03;0.70;;;6.00;99.90;;;;;;5494080;26;20258;-79
2024/04/11 02:44:21;;;;;;;1.30;1.00;;;6.00;99.90;;;;;;5494518;26;21122;-79
2024/04/11 02:46:46;;;;;;;5.93;0.80;;;6.00;99.90;;;;;;5494581;26;20542;-79
2024/04/11 02:49:17;;;;;;;1.37;0.80;;;5.90;99.90;;;;;;5494522;26;20448;-79
2024/04/11 02:51:43;;;;;;;0.83;0.70;;;5.90;99.90;;;;;;5494007;26;20271;-79
2024/04/11 02:54:12;;;;;;;1.30;0.87;;;5.90;99.90;;;;;;5494703;26;20444;-79
2024/04/11 02:56:38;;;;;;;6.10;1.10;;;5.90;99.90;;;;;;5494457;26;20249;-79
2024/04/11 02:59:09;;;;;;;2.30;0.70;;;5.90;99.90;;;;;;5494300;26;20456;-79
2024/04/11 03:01:34;;;;;;;2.20;0.93;;;5.90;99.90;;;;;;5494518;26;20253;-79
2024/04/11 03:04:03;;;;;;;9.93;0.90;;;5.90;99.90;;;;;;5494062;26;20455;-79
2024/04/11 03:06:31;;;;;;;0.90;0.90;;;5.90;99.90;;;;;;5494362;26;20610;-79
2024/04/11 03:09:00;;;;;;;0.97;0.63;;;5.80;99.90;;;;;;5494277;26;20531;-79
2024/04/11 03:11:27;;;;;;;14.43;1.17;;;5.80;99.90;;;;;;5494220;26;20448;-79
2024/04/11 03:13:58;;;;;;;2.00;0.70;;;5.80;99.90;;;;;;5494258;26;20456;-79
2024/04/11 03:16:24;;;;;;;0.70;0.70;;;5.80;99.90;;;;;;5493947;26;20508;-82
2024/04/11 03:18:55;;;;;;;3.57;0.80;;;5.80;99.90;;;;;;5498540;26;20455;-82
2024/04/11 03:21:21;;;;;;;1.43;0.90;;;5.80;99.90;;;;;;5494209;26;20833;-82
2024/04/11 03:23:52;;;;;;;0.80;0.80;;;5.80;99.90;;;;;;5492858;26;20471;-82
2024/04/11 03:26:19;;;;;;;1.13;0.80;;;5.80;99.90;;;;;;5492728;26;20202;-82
2024/04/11 03:28:47;;;;;;;2.10;0.80;;;5.70;99.90;;;;;;5492328;26;20444;-82
2024/04/11 03:31:17;;;;;;;0.93;0.87;;;5.70;99.90;;;;;;5492245;26;20483;-82
2024/04/11 03:33:46;;;;;;;2.20;0.60;;;5.70;99.90;;;;;;5492408;26;20520;-82
2024/04/11 03:36:12;;;;;;;0.60;0.50;;;5.70;99.90;;;;;;5491969;26;20975;-82
2024/04/11 03:38:42;;;;;;;1.67;1.13;;;5.70;99.90;;;;;;5492223;26;20452;-82
2024/04/11 03:41:11;;;;;;;0.70;0.70;;;5.70;99.90;;;;;;5491590;26;20439;-82
2024/04/11 03:43:41;;;;;;;1.63;0.70;;;5.70;99.90;;;;;;5493147;26;20460;-82
2024/04/11 03:46:11;;;;;;;0.60;0.60;;;5.70;99.90;;;;;;5492214;26;20944;-82
2024/04/11 03:48:40;;;;;;;0.70;0.60;;;5.70;99.90;;;;;;5492018;26;20440;-82
2024/04/11 03:51:10;;;;;;;0.90;0.80;;;5.70;99.90;;;;;;5492110;26;20503;-82
2024/04/11 03:53:38;;;;;;;4.30;1.03;;;5.70;99.90;;;;;;5492311;26;20497;-82
2024/04/11 03:56:07;;;;;;;1.37;0.90;;;5.70;99.90;;;;;;5491876;26;21122;-81
2024/04/11 03:58:39;;;;;;;2.00;0.90;;;5.70;99.90;;;;;;5491874;26;20493;-82
2024/04/11 04:01:06;;;;;;;4.40;1.00;;;5.70;99.90;;;;;;5491748;26;20440;-82
2024/04/11 04:03:36;;;;;;;1.43;0.90;;;5.70;99.90;;;;;;5491704;26;21075;-81
2024/04/11 04:06:02;;;;;;;3.00;1.53;;;5.70;99.90;;;;;;5492219;26;20459;-81
2024/04/11 04:08:30;;;;;;;3.27;1.03;;;5.70;99.90;;;;;;5492220;26;20499;-81
2024/04/11 04:10:56;;;;;;;2.00;0.90;;;5.70;99.90;;;;;;5491891;26;20585;-81
2024/04/11 04:13:26;;;;;;;1.20;0.77;;;5.70;99.90;;;;;;5492539;26;21006;-79
2024/04/11 04:15:55;;;;;;;0.70;0.70;;;5.70;99.90;;;;;;5492874;26;20270;-79
2024/04/11 04:18:23;;;;;;;1.00;1.00;;;5.70;99.90;;;;;;5493150;26;20791;-79
2024/04/11 04:20:55;;;;;;;0.97;0.80;;;5.70;99.90;;;;;;5493163;26;20549;-79
2024/04/11 04:23:24;;;;;;;1.90;0.83;;;5.70;99.90;;;;;;5493029;26;20456;-79
2024/04/11 04:25:59;;;;;;;2.33;0.53;;;5.60;99.90;;;;;;5493569;26;20545;-79
2024/04/11 04:28:30;;;;;;;0.90;0.70;;;5.60;99.90;;;;;;5493548;26;20501;-79
2024/04/11 04:31:12;;;;;;;0.90;0.73;;;5.50;99.90;;;;;;5493218;26;20543;-79
2024/04/11 04:33:41;;;;;;;0.60;0.60;;;5.50;99.90;;;;;;5493273;26;20590;-79
2024/04/11 04:36:07;;;;;;;0.60;0.60;;;5.50;99.90;;;;;;5493167;26;20452;-80
2024/04/11 04:38:37;;;;;;;1.87;0.70;;;5.40;99.90;;;;;;5492927;26;20519;-79
2024/04/11 04:41:03;;;;;;;2.00;1.33;;;5.40;99.90;;;;;;5493482;26;20504;-79
2024/04/11 04:43:32;;;;;;;0.80;0.80;;;5.40;99.90;;;;;;5492690;26;20896;-79
2024/04/11 04:46:00;;;;;;;1.10;1.00;;;5.40;99.90;;;;;;5492689;26;20500;-79
2024/04/11 04:48:29;;;;;;;1.27;0.77;;;5.40;99.90;;;;;;5492654;26;20506;-79
2024/04/11 04:50:55;;;;;;;0.70;0.50;;;5.40;99.90;;;;;;5492483;26;20444;-79
2024/04/11 04:53:25;;;;;;;1.40;0.70;;;5.40;99.90;;;;;;5491366;26;20860;-79
2024/04/11 04:55:52;;;;;;;1.03;0.87;;;5.40;99.90;;;;;;5492604;26;20741;-79
2024/04/11 04:58:20;;;;;;;2.33;0.70;;;5.40;99.90;;;;;;5492363;26;20456;-79
2024/04/11 05:00:47;;;;;;;0.70;0.70;;;5.40;99.90;;;;;;5491602;26;20593;-79
2024/04/11 05:03:18;;;;;;;1.80;0.73;;;5.40;99.90;;;;;;5492621;26;20455;-79
2024/04/11 05:05:44;;;;;;;4.60;0.60;;;5.40;99.90;;;;;;5492058;26;20436;-79
2024/04/11 05:08:14;;;;;;;1.10;0.90;;;5.50;99.90;;;;;;5492231;26;20968;-79
2024/04/11 05:10:40;;;;;;;0.93;0.90;;;5.50;99.90;;;;;;5491412;26;20508;-79
2024/04/11 05:13:09;;;;;;;1.20;1.10;;;5.50;99.90;;;;;;5492037;26;20459;-79
2024/04/11 05:15:35;;;;;;;0.93;0.93;;;5.50;99.90;;;;;;5492432;26;20499;-79
2024/04/11 05:18:04;;;;;;;2.10;1.27;;;5.50;99.90;;;;;;5491777;26;20514;-79
2024/04/11 05:20:33;;;;;;;1.73;0.90;;;5.60;99.90;;;;;;5492128;26;20492;-79
2024/04/11 05:23:04;;;;;;;1.57;1.10;;;5.60;99.90;;;;;;5491908;26;20511;-79
2024/04/11 05:25:32;;;;;;;0.80;0.80;;;5.70;99.90;;;;;;5492217;26;20849;-79
2024/04/11 05:28:02;;;;;;;1.47;1.33;;;5.70;99.90;;;;;;5491610;26;20443;-79
2024/04/11 05:30:27;;;;;;;4.87;0.90;;;5.80;99.90;;;;;;5495897;26;20452;-80
2024/04/11 05:32:57;;;;;;;2.03;1.00;;;5.90;99.90;;;;;;5494923;26;20503;-80
2024/04/11 05:35:23;;;;;;;1.23;0.83;;;5.90;99.90;;;;;;5493260;26;20307;-80
2024/04/11 05:37:54;;;;;;;3.00;1.03;;;6.00;99.90;;;;;;5493163;26;20981;-80
2024/04/11 05:40:21;;;;;;;1.60;0.80;;;6.10;99.90;;;;;;5493156;26;20845;-79
2024/04/11 05:42:50;;;;;;;5.50;1.30;;;6.20;99.90;;;;;;5492659;26;20517;-80
2024/04/11 05:45:18;;;;;;;0.83;0.83;;;6.30;99.90;;;;;;5492271;26;20494;-80
2024/04/11 05:47:46;;;;;;;1.30;0.80;;;6.40;99.90;;;;;;5491788;26;20447;-79
2024/04/11 05:50:15;;;;;;;0.97;0.87;;;6.50;99.90;;;;;;5491624;26;20519;-79
2024/04/11 05:52:43;;;;;;;0.80;0.80;;;6.60;99.90;;;;;;5491525;26;20841;-79
2024/04/11 05:55:12;;;;;;;4.70;1.17;;;6.70;99.90;;;;;;5491664;26;20527;-79
2024/04/11 05:57:43;;;;;;;0.80;0.70;;;6.80;99.90;;;;;;5491282;26;20455;-79
2024/04/11 06:00:11;;;;;;;1.53;1.17;;;6.90;99.90;;;;;;5491131;26;20578;-79
2024/04/11 06:02:41;;;;;;;1.77;1.30;;;7.00;99.90;;;;;;5491301;26;20459;-79
2024/04/11 06:05:07;;;;;;;2.30;1.03;;;7.10;99.90;;;;;;5494914;26;20447;-79
2024/04/11 06:07:39;;;;;;;0.70;0.70;;;7.20;99.90;;;;;;5495039;26;20492;-80
2024/04/11 06:10:05;;;;;;;1.50;1.00;;;7.30;99.90;;;;;;5494748;26;20568;-79
2024/04/11 06:12:36;;;;;;;2.33;2.23;;;7.40;99.90;;;;;;5494760;26;21124;-79
2024/04/11 06:15:02;;;;;;;4.60;2.60;;;7.50;99.90;;;;;;5494701;26;20511;-79
2024/04/11 06:17:31;;;;;;;2.53;1.60;;;7.50;99.90;;;;;;5495051;26;20515;-80
2024/04/11 06:20:01;;;;;;;3.30;2.33;;;7.60;99.90;;;;;;5495433;26;20515;-80
2024/04/11 06:22:29;;;;;;;3.83;2.13;;;7.70;99.90;;;;;;5495756;26;20508;-80
2024/04/11 06:24:55;;;;;;;1.90;1.80;;;7.90;99.90;;;;;;5495093;26;21058;-80
2024/04/11 06:27:24;;;;;;;1.53;1.43;;;8.20;99.90;;;;;;5495158;26;20525;-80
2024/04/11 06:29:52;;;;;;;3.90;1.90;;;8.60;99.90;;;;;;5494614;26;20215;-80
2024/04/11 06:32:20;;;;;;;3.07;2.40;;;9.30;99.90;;;;;;5494412;26;20535;-80
2024/04/11 06:34:52;;;;;;;2.47;1.80;;;10.00;99.90;;;;;;5494187;26;20448;-80
2024/04/11 06:37:22;;;;;;;3.60;1.73;;;10.60;99.90;;;;;;5494754;26;20439;-80
2024/04/11 06:39:49;;;;;;;1.40;1.23;;;11.10;99.90;;;;;;5495229;26;20975;-79
2024/04/11 06:42:17;;;;;;;1.37;1.10;;;11.60;99.90;;;;;;5494892;26;20512;-79
2024/04/11 06:44:45;;;;;;;1.83;1.10;;;12.00;99.90;;;;;;5495642;26;20443;-80
2024/04/11 06:47:18;;;;;;;2.20;1.17;;;12.60;99.90;;;;;;5495703;26;20451;-80
2024/04/11 06:49:47;;;;;;;2.47;1.60;;;13.00;99.90;;;;;;5495462;26;20448;-80
2024/04/11 06:52:16;;;;;;;3.47;1.57;;;13.40;99.90;;;;;;5494398;26;20471;-79
2024/04/11 06:54:43;;;;;;;4.60;1.80;;;13.80;99.90;;;;;;5494634;26;21034;-80
2024/04/11 06:57:14;;;;;;;1.43;1.33;;;14.20;99.90;;;;;;5494483;26;20448;-80
2024/04/11 06:59:44;;;;;;;3.50;1.40;;;14.40;99.90;;;;;;5495267;26;20499;-79
2024/04/11 07:02:10;;;;;;;2.70;1.53;;;14.50;99.90;;;;;;5494729;26;20468;-80
2024/04/11 07:04:42;;;;;;;2.93;1.30;;;14.80;99.90;;;;;;5494482;26;20490;-79
2024/04/11 07:07:08;;;;;;;2.07;1.40;;;15.20;99.90;;;;;;5494414;26;20979;-80
2024/04/11 07:09:40;;;;;;;3.83;1.90;;;15.80;99.90;;;;;;5494731;26;20447;-80
2024/04/11 07:12:10;;;;;;;2.20;2.00;;;16.40;99.90;;;;;;5494192;26;20569;-80
2024/04/11 07:14:40;;;;;;;2.10;2.00;;;16.80;98.80;;;;;;5494888;26;20460;-80
2024/04/11 07:17:11;;;;;;;2.77;1.83;;;16.90;98.10;;;;;;5494858;26;20475;-80
2024/04/11 07:19:42;;;;;;;6.67;2.30;;;17.00;97.50;;;;;;5494509;26;21000;-80
2024/04/11 07:22:09;;;;;;;2.20;1.53;;;17.10;96.70;;;;;;5494104;26;20506;-80
2024/04/11 07:24:37;;;;;;;2.20;2.00;;;17.20;96.40;;;;;;5494932;26;20499;-80
2024/04/11 07:27:11;;;;;;;1.40;1.30;;;17.30;96.10;;;;;;5494395;26;20448;-80
2024/04/11 07:29:39;;;;;;;2.00;1.13;;;17.60;95.60;;;;;;5495286;26;20459;-81
2024/04/11 07:32:08;;;;;;;1.47;1.30;;;18.00;94.20;;;;;;5495894;26;20507;-81
2024/04/11 07:34:34;;;;;;;9.70;1.30;;;18.50;93.70;;;;;;5495269;26;20532;-78
2024/04/11 07:37:06;;;;;;;1.27;1.17;;;18.80;92.80;;;;;;5494867;26;20606;-79
2024/04/11 07:39:32;;;;;;;2.10;1.27;;;19.40;91.50;;;;;;5499252;26;20260;-81
2024/04/11 07:42:18;;;;;;;1.37;1.10;;;19.70;89.90;;;;;;5506933;26;20448;-80
2024/04/11 07:44:44;;;;;;;2.30;1.07;;;19.80;89.30;;;;;;5504525;26;20447;-80
2024/04/11 07:47:13;;;;;;;0.90;0.90;;;20.00;88.50;;;;;;5500712;26;20459;-78
2024/04/11 07:49:40;;;;;;;2.23;1.03;;;20.00;87.50;;;;;;5498091;26;20439;-80
2024/04/11 07:52:12;;;;;;;1.27;0.87;;;20.10;85.80;;;;;;5495318;26;20483;-77
2024/04/11 07:54:38;;;;;;;1.27;1.10;;;20.30;84.80;;;;;;5494961;26;20443;-78
2024/04/11 07:57:08;;;;;;;0.80;0.80;;;20.50;83.20;;;;;;5494651;26;20252;-78
2024/04/11 07:59:33;;;;;;;1.30;1.20;;;20.90;81.70;;;;;;5495081;26;20245;-81
2024/04/11 08:02:02;;;;;;;1.90;1.10;;;21.20;80.50;;;;;;5495185;26;20222;-81
2024/04/11 08:04:27;;;;;;;2.00;1.00;;;21.20;77.90;;;;;;5494335;26;20807;-80
2024/04/11 08:06:57;;;;;;;1.15;1.05;;;21.10;77.30;;;;;;5494145;26;20221;-81
2024/04/11 08:09:25;;;;;;;3.47;1.20;;;20.80;76.90;;;;;;5494477;26;20214;-81
2024/04/11 08:11:55;;;;;;;3.45;0.85;;;20.60;75.90;;;;;;5493906;26;20218;-83
2024/04/11 08:14:22;;;;;;;1.77;0.70;;;20.40;74.90;;;;;;5494069;26;20358;-80
2024/04/11 08:16:50;;;;;;;0.90;0.88;;;20.10;74.50;;;;;;5493819;26;20683;-81
2024/04/11 08:19:17;;;;;;;6.33;1.20;;;19.80;75.20;;;;;;5493650;26;20269;-81
2024/04/11 08:21:46;;;;;;;1.23;0.70;;;19.60;75.10;;;;;;5493999;26;20310;-80
2024/04/11 08:24:11;;;;;;;1.97;1.27;;;19.40;76.70;;;;;;5493719;26;20308;-80
2024/04/11 08:26:42;;;;;;;1.13;1.00;;;19.20;76.90;;;;;;5492961;26;20226;-81
2024/04/11 08:29:08;;;;;;;1.00;0.87;;;19.00;77.60;;;;;;5494358;26;20289;-82
2024/04/11 08:31:37;;;;;;;1.23;1.00;;;19.00;78.10;;;;;;5495467;26;20455;-81
2024/04/11 08:34:02;;;;;;;0.80;0.80;;;18.80;75.90;;;;;;5494773;26;20234;-81
2024/04/11 08:36:31;;;;;;;0.83;0.80;;;18.50;76.30;;;;;;5494160;26;20451;-81
2024/04/11 08:38:57;;;;;;;1.17;1.07;;;18.30;77.90;;;;;;5493651;26;20206;-81
2024/04/11 08:41:26;;;;;;;2.77;0.70;;;18.10;78.50;;;;;;5493910;26;20451;-81
2024/04/11 08:43:56;;;;;;;0.63;0.63;;;17.90;79.40;;;;;;5493645;26;20596;-81
2024/04/11 08:46:24;;;;;;;1.47;1.03;;;17.90;79.30;;;;;;5493451;26;21054;-81
2024/04/11 08:48:50;;;;;;;1.57;0.90;;;18.10;79.50;;;;;;5493292;26;20543;-82
2024/04/11 08:51:21;;;;;;;4.97;1.20;;;18.40;76.40;;;;;;5494061;26;20771;-81
2024/04/11 08:53:48;;;;;;;1.10;0.77;;;18.80;76.00;;;;;;5494147;26;20218;-81
2024/04/11 08:56:18;;;;;;;0.67;0.67;;;19.30;75.60;;;;;;5493669;26;20560;-82
2024/04/11 08:58:45;;;;;;;1.27;1.17;;;19.70;74.30;;;;;;5493791;26;21019;-81
2024/04/11 09:01:18;;;;;;;0.83;0.80;;;20.40;74.70;;;;;;5493260;26;20455;-82
2024/04/11 09:03:48;;;;;;;0.70;0.70;;;21.20;71.50;;;;;;5493430;26;20568;-82
2024/04/11 09:06:23;;;;;;;2.15;0.70;;;21.70;70.50;;;;;;5492440;26;20211;-82
2024/04/11 09:08:50;;;;;;;1.85;1.00;;;22.50;69.50;;;;;;5492785;26;20201;-81
2024/04/11 09:11:18;;;;;;;1.65;0.80;;;23.00;65.50;;;;;;5492094;26;20270;-81
2024/04/11 09:13:44;;;;;;;1.95;0.70;;;23.70;65.40;;;;;;5492129;26;20222;-81
2024/04/11 09:16:21;;;;;;;2.75;0.80;;;24.50;65.80;;;;;;5492378;26;20295;-81
2024/04/11 09:18:47;;;;;;;0.60;0.60;;;24.80;63.00;;;;;;5492398;26;20778;-82
2024/04/11 09:21:17;;;;;;;0.70;0.70;;;24.60;60.40;;;;;;5492446;26;20683;-80
2024/04/11 09:23:46;;;;;;;1.50;0.80;;;24.00;60.10;;;;;;5492484;26;20256;-83
2024/04/11 09:26:15;;;;;;;0.85;0.80;;;23.90;60.60;;;;;;5492012;26;20226;-80
2024/04/11 09:28:41;;;;;;;3.70;0.73;;;24.00;59.50;;;;;;5493033;26;20556;-80
2024/04/11 09:31:10;;;;;;;1.02;0.65;;;24.10;59.10;;;;;;5492204;26;20314;-81
2024/04/11 09:33:42;;;;;;;2.67;0.90;;;23.50;59.30;;;;;;5491880;26;20234;-80
2024/04/11 09:36:15;;;;;;;2.20;0.60;;;23.00;59.60;;;;;;5492300;26;20290;-80
2024/04/11 09:38:44;;;;;;;0.60;0.60;;;22.70;59.10;;;;;;5491141;26;20214;-80
2024/04/11 09:41:14;;;;;;;0.70;0.70;;;22.40;59.80;;;;;;5492338;26;20222;-79
2024/04/11 09:43:41;;;;;;;0.70;0.70;;;22.30;59.80;;;;;;5491697;26;20475;-79
2024/04/11 09:46:15;;;;;;;5.50;0.80;;;22.50;58.50;;;;;;5491109;26;20442;-79
2024/04/11 09:48:46;;;;;;;2.03;0.90;;;22.80;57.30;;;;;;5498107;26;20983;-79
2024/04/11 09:51:16;;;;;;;3.63;0.77;;;23.20;58.30;;;;;;5495566;26;20936;-80
2024/04/11 09:53:42;;;;;;;0.80;0.80;;;23.20;57.80;;;;;;5492590;26;20459;-80
2024/04/11 09:56:14;;;;;;;2.23;0.60;;;22.70;56.30;;;;;;5491941;26;20451;-80
2024/04/11 09:58:42;;;;;;;1.07;0.57;;;22.40;59.00;;;;;;5491190;26;20404;-80
2024/04/11 10:01:29;;;;;;;1.70;0.80;;;22.40;60.00;;;;;;5491115;26;20447;-79
2024/04/11 10:04:03;;;;;;;1.13;0.90;;;22.50;59.30;;;;;;5491184;26;20470;-79
2024/04/11 10:06:35;;;;;;;0.67;0.60;;;22.80;59.00;;;;;;5491342;26;20506;-80
2024/04/11 10:09:13;;;;;;;0.60;0.60;;;22.60;57.10;;;;;;5490861;26;20432;-79
2024/04/11 10:11:46;;;;;;;1.40;0.70;;;22.00;57.50;;;;;;5490896;26;20523;-80
2024/04/11 10:14:20;;;;;;;1.03;0.70;;;21.90;58.30;;;;;;5492028;26;20499;-80
2024/04/11 10:16:51;;;;;;;1.17;0.80;;;21.90;55.60;;;;;;5492379;26;20447;-80
2024/04/11 10:19:26;;;;;;;2.03;0.70;;;22.00;56.20;;;;;;5492982;26;20574;-79
2024/04/11 10:22:04;;;;;;;2.40;1.27;;;22.20;57.80;;;;;;5491265;26;20529;-79
2024/04/11 10:24:31;;;;;;;0.67;0.67;;;22.40;57.30;;;;;;5491766;26;21079;-79
2024/04/11 10:27:18;;;;;;;2.13;0.63;;;22.60;57.00;;;;;;5491075;26;20793;-80
2024/04/11 10:29:46;;;;;;;0.90;0.70;;;23.00;55.80;;;;;;5494887;26;20257;-80
2024/04/11 10:32:22;;;;;;;0.60;0.60;;;23.70;55.40;;;;;;5492632;26;20249;-80
2024/04/11 10:34:56;;;;;;;0.63;0.63;;;23.90;54.80;;;;;;5491710;26;20313;-80
2024/04/11 10:37:25;;;;;;;0.60;0.60;;;24.10;54.00;;;;;;5493881;26;20396;-80
2024/04/11 10:39:54;;;;;;;0.57;0.57;;;24.10;54.20;;;;;;5492263;26;20215;-79
2024/04/11 10:42:36;;;;;;;1.15;0.60;;;24.50;54.80;;;;;;5491652;26;20268;-79
2024/04/11 10:45:04;;;;;;;0.60;0.60;;;24.90;54.90;;;;;;5491920;26;20244;-79
2024/04/11 10:47:32;;;;;;;0.90;0.77;;;25.20;54.40;;;;;;5492547;26;20260;-79
2024/04/11 10:50:09;;;;;;;1.40;0.75;;;25.70;53.40;;;;;;5494070;26;20218;-83
2024/04/11 10:52:45;;;;;;;0.80;0.80;;;26.60;52.90;;;;;;5494511;26;20218;-81
2024/04/11 10:55:22;;;;;;;1.25;0.80;;;26.60;52.20;;;;;;5494454;26;20535;-84
2024/04/11 10:58:08;;;;;;;1.40;0.77;;;26.80;52.20;;;;;;5494965;26;20249;-81
2024/04/11 11:01:07;;;;;;;1.50;1.40;;;26.80;50.40;;;;;;5494402;26;20684;-79
2024/04/11 11:03:40;;;;;;;1.15;0.80;;;26.30;51.40;;;;;;5494729;26;20230;-81
2024/04/11 11:06:13;;;;;;;0.70;0.60;;;25.60;51.10;;;;;;5496715;26;20202;-80
2024/04/11 11:08:43;;;;;;;0.95;0.95;;;25.10;53.20;;;;;;5496455;26;20314;-81
2024/04/11 11:11:11;;;;;;;0.80;0.80;;;24.60;55.40;;;;;;5496469;26;20321;-80
2024/04/11 11:13:41;;;;;;;0.75;0.75;;;23.80;55.60;;;;;;5497105;26;20341;-80
2024/04/11 11:16:07;;;;;;;2.10;0.90;;;23.10;57.20;;;;;;5494921;26;20218;-80
2024/04/11 11:18:39;;;;;;;1.08;0.98;;;22.50;57.80;;;;;;5493731;26;20288;-79
2024/04/11 11:21:07;;;;;;;0.88;0.88;;;22.10;56.60;;;;;;5494016;26;20244;-79
2024/04/11 11:23:45;;;;;;;1.37;1.00;;;21.70;56.70;;;;;;5493660;26;20390;-79
2024/04/11 11:26:11;;;;;;;1.13;1.03;;;21.20;57.10;;;;;;5493728;26;20213;-79
2024/04/11 11:28:41;;;;;;;1.33;1.23;;;20.80;59.50;;;;;;5494092;26;20451;-79
2024/04/11 11:31:15;;;;;;;1.30;1.20;;;20.70;59.80;;;;;;5494331;26;20498;-79
2024/04/11 11:33:44;;;;;;;1.90;1.37;;;20.60;59.30;;;;;;5495418;26;20482;-79
2024/04/11 11:36:12;;;;;;;1.80;1.40;;;20.20;60.40;;;;;;5495198;26;20444;-80
2024/04/11 11:38:43;;;;;;;2.03;1.00;;;20.00;62.60;;;;;;5495102;26;20979;-80
2024/04/11 11:41:15;;;;;;;2.20;1.10;;;20.10;62.50;;;;;;5495695;26;20459;-79
2024/04/11 11:43:54;;;;;;;2.50;1.50;;;20.20;63.90;;;;;;5495564;26;20463;-80
2024/04/11 11:46:27;;;;;;;1.40;1.20;;;20.20;63.10;;;;;;5495066;26;20821;-79
2024/04/11 11:48:56;;;;;;;1.53;1.17;;;20.20;62.60;;;;;;5494134;26;20775;-79
2024/04/11 11:51:28;;;;;;;2.73;1.27;;;20.20;63.40;;;;;;5493530;26;20467;-79
2024/04/11 11:54:00;;;;;;;2.40;1.10;;;20.10;63.30;;;;;;5493774;26;20511;-79
2024/04/11 11:56:31;;;;;;;1.30;1.20;;;20.10;61.80;;;;;;5493568;26;20580;-79
2024/04/11 11:59:02;;;;;;;1.10;1.10;;;20.00;62.30;;;;;;5493303;26;20535;-79
2024/04/11 12:01:31;;;;;;;3.90;2.60;;;19.90;62.90;;;;;;5494010;26;20455;-79
2024/04/11 12:04:00;;;;;;;3.30;1.40;;;19.80;61.40;;;;;;5499461;26;20456;-79
2024/04/11 12:06:33;;;;;;;1.63;1.53;;;19.60;62.00;;;;;;5493938;26;20435;-80
2024/04/11 12:09:10;;;;;;;1.87;1.60;;;19.50;63.50;;;;;;5493945;26;20455;-80
2024/04/11 12:11:49;;;;;;;1.00;1.00;;;19.30;63.10;;;;;;5493816;26;20575;-79
2024/04/11 12:14:28;;;;;;;1.87;1.47;;;19.10;62.90;;;;;;5493049;26;20545;-79
2024/04/11 12:16:56;;;;;;;3.57;1.63;;;19.00;63.40;;;;;;5492887;26;20449;-79
2024/04/11 12:19:28;;;;;;;5.50;0.93;;;18.80;66.50;;;;;;5492520;26;20505;-79
2024/04/11 12:21:55;;;;;;;2.97;0.90;;;18.80;65.60;;;;;;5492656;26;20448;-79
2024/04/11 12:24:26;;;;;;;2.23;1.20;;;18.80;65.00;;;;;;5493112;26;20432;-79
2024/04/11 12:26:52;;;;;;;2.13;1.10;;;18.80;65.20;;;;;;5492528;26;20452;-79
2024/04/11 12:29:21;;;;;;;1.83;1.20;;;18.70;66.10;;;;;;5492603;26;20866;-79
2024/04/11 12:31:48;;;;;;;1.17;1.07;;;18.60;66.10;;;;;;5492521;26;20443;-79
2024/04/11 12:34:16;;;;;;;1.37;0.77;;;18.60;65.30;;;;;;5493077;26;20463;-79
2024/04/11 12:36:56;;;;;;;1.17;1.00;;;18.50;66.60;;;;;;5493056;26;20562;-79
2024/04/11 12:39:41;;;;;;;1.83;1.13;;;18.50;65.40;;;;;;5492443;26;20933;-79
2024/04/11 12:42:07;;;;;;;1.33;0.90;;;18.40;64.50;;;;;;5492309;26;20504;-79
2024/04/11 12:44:38;;;;;;;1.03;0.87;;;18.20;65.20;;;;;;5492656;26;20995;-79
2024/04/11 12:47:13;;;;;;;3.50;1.30;;;18.20;67.20;;;;;;5493079;26;20500;-79
2024/04/11 12:49:47;;;;;;;1.10;0.70;;;18.20;68.20;;;;;;5492445;26;20995;-79
2024/04/11 12:52:13;;;;;;;1.13;1.03;;;18.10;64.00;;;;;;5491902;26;20452;-79
2024/04/11 12:54:47;;;;;;;1.17;1.00;;;18.00;63.10;;;;;;5492124;26;20451;-79
2024/04/11 12:57:17;;;;;;;0.93;0.90;;;17.90;62.90;;;;;;5491632;26;20460;-78
2024/04/11 12:59:47;;;;;;;0.80;0.80;;;17.70;62.70;;;;;;5491638;26;21036;-79
2024/04/11 13:02:19;;;;;;;2.60;1.00;;;17.60;63.20;;;;;;5491913;26;20460;-78
2024/04/11 13:04:54;;;;;;;0.87;0.87;;;17.40;64.20;;;;;;5491838;26;20556;-79